createdAt,value
2022-08-17T00:03:23.047Z,23.00
2022-08-17T00:08:32.320Z,23.00
2022-08-17T00:25:48.265Z,22.90
2022-08-17T00:30:56.456Z,22.90
2022-08-17T00:36:02.818Z,22.90
2022-08-17T00:41:09.804Z,22.80
2022-08-17T00:46:16.890Z,22.90
2022-08-17T00:56:33.690Z,22.70
2022-08-17T01:01:38.631Z,22.70
2022-08-17T01:06:50.171Z,22.60
2022-08-17T01:11:53.063Z,22.60
2022-08-17T01:17:00.375Z,22.50
2022-08-17T01:22:08.632Z,22.40
2022-08-17T01:27:18.451Z,22.30
2022-08-17T01:32:22.695Z,22.30
2022-08-17T01:37:31.935Z,22.20
2022-08-17T01:42:45.110Z,22.20
2022-08-17T01:47:51.474Z,22.10
2022-08-17T01:53:03.174Z,21.90
2022-08-17T01:58:11.961Z,21.70
2022-08-17T02:03:18.319Z,21.50
2022-08-17T02:08:39.340Z,21.40
2022-08-17T02:14:24.222Z,21.40
2022-08-17T02:19:26.318Z,21.50
2022-08-17T02:24:59.469Z,21.20
2022-08-17T02:29:59.961Z,21.10
2022-08-17T02:35:04.261Z,21.10
2022-08-17T02:40:12.880Z,21.00
2022-08-17T02:45:20.940Z,21.00
2022-08-17T02:55:34.917Z,20.80
2022-08-17T03:05:54.438Z,20.60
2022-08-17T03:11:04.945Z,20.60
2022-08-17T03:16:10.211Z,20.60
2022-08-17T03:26:29.890Z,20.20
2022-08-17T03:31:32.457Z,20.10
2022-08-17T03:36:35.938Z,20.10
2022-08-17T03:41:40.065Z,20.10
2022-08-17T03:47:04.957Z,20.10
2022-08-17T03:52:24.879Z,20.00
2022-08-17T03:57:37.209Z,19.90
2022-08-17T04:02:40.230Z,19.90
2022-08-17T04:07:45.608Z,19.90
2022-08-17T04:12:51.523Z,19.90
2022-08-17T04:17:54.006Z,19.80
2022-08-17T04:23:02.696Z,19.80
2022-08-17T04:28:16.531Z,19.80
2022-08-17T04:33:23.043Z,19.80
2022-08-17T04:38:33.958Z,19.90
2022-08-17T04:44:03.871Z,19.90
2022-08-17T04:50:25.895Z,20.00
2022-08-17T04:56:01.098Z,20.10
2022-08-17T05:01:03.547Z,20.20
2022-08-17T05:06:10.287Z,20.20
2022-08-17T05:11:12.364Z,20.40
2022-08-17T05:16:15.358Z,20.40
2022-08-17T05:21:22.282Z,20.50
2022-08-17T05:26:27.380Z,20.80
2022-08-17T05:31:38.647Z,21.30
2022-08-17T05:36:45.099Z,22.00
2022-08-17T05:41:52.580Z,22.40
2022-08-17T05:46:59.189Z,22.40
2022-08-17T05:52:27.758Z,22.70
2022-08-17T05:58:16.928Z,22.90
2022-08-17T06:03:53.818Z,23.10
2022-08-17T06:09:13.033Z,23.50
2022-08-17T06:14:27.137Z,23.60
2022-08-17T06:19:43.906Z,23.70
2022-08-17T06:25:03.061Z,23.90
2022-08-17T06:30:12.407Z,24.10
2022-08-17T06:35:31.833Z,24.10
2022-08-17T06:40:52.559Z,24.30
2022-08-17T06:46:06.258Z,24.60
2022-08-17T06:51:16.079Z,24.50
2022-08-17T06:56:54.678Z,24.40
2022-08-17T07:02:10.719Z,24.40
2022-08-17T07:07:31.554Z,24.30
2022-08-17T07:12:43.193Z,24.40
2022-08-17T07:17:51.720Z,24.50
2022-08-17T07:23:02.147Z,24.60
2022-08-17T07:28:13.934Z,24.60
2022-08-17T07:33:22.155Z,24.70
2022-08-17T07:38:28.803Z,24.80
2022-08-17T07:43:40.119Z,24.80
2022-08-17T07:48:47.763Z,24.90
2022-08-17T07:53:53.694Z,24.90
2022-08-17T07:59:13.081Z,25.00
2022-08-17T08:04:59.171Z,25.20
2022-08-17T08:10:09.049Z,25.40
2022-08-17T08:15:26.114Z,25.50
2022-08-17T08:20:52.072Z,25.60
2022-08-17T08:26:06.055Z,25.70
2022-08-17T08:31:26.594Z,25.90
2022-08-17T08:36:59.326Z,26.10
2022-08-17T08:42:15.427Z,26.40
2022-08-17T08:47:35.508Z,26.60
2022-08-17T08:53:20.125Z,26.90
2022-08-17T08:58:42.227Z,27.10
2022-08-17T09:04:28.591Z,27.50
2022-08-17T09:09:43.506Z,27.70
2022-08-17T09:15:02.020Z,27.90
2022-08-17T09:20:28.053Z,28.20
2022-08-17T09:25:37.065Z,28.50
2022-08-17T09:30:46.774Z,28.80
2022-08-17T09:35:57.717Z,28.80
2022-08-17T09:41:18.246Z,29.10
2022-08-17T09:46:29.943Z,29.30
2022-08-17T09:51:41.442Z,29.60
2022-08-17T09:57:27.949Z,29.80
2022-08-17T10:02:54.821Z,30.00
2022-08-17T10:08:04.307Z,30.50
2022-08-17T10:13:21.999Z,30.90
2022-08-17T10:18:40.555Z,31.20
2022-08-17T10:24:02.792Z,31.50
2022-08-17T10:29:20.747Z,31.90
2022-08-17T10:34:49.927Z,32.00
2022-08-17T10:40:09.372Z,32.40
2022-08-17T10:45:27.722Z,32.50
2022-08-17T10:51:01.353Z,32.70
2022-08-17T10:56:27.965Z,33.00
2022-08-17T11:02:10.494Z,33.60
2022-08-17T11:07:28.566Z,34.20
2022-08-17T11:12:47.205Z,34.90
2022-08-17T11:18:15.148Z,35.40
2022-08-17T11:23:51.907Z,35.70
2022-08-17T11:29:06.979Z,36.10
2022-08-17T11:34:28.957Z,35.90
2022-08-17T11:40:06.737Z,35.90
2022-08-17T11:45:35.965Z,36.20
2022-08-17T11:51:07.123Z,36.80
2022-08-17T11:56:15.797Z,37.40
2022-08-17T12:01:56.460Z,38.00
2022-08-17T12:07:13.621Z,38.30
2022-08-17T12:12:23.255Z,38.30
2022-08-17T12:17:39.563Z,38.20
2022-08-17T12:23:08.440Z,38.80
2022-08-17T12:28:31.100Z,39.30
2022-08-17T12:33:40.018Z,39.80
2022-08-17T12:38:53.005Z,39.90
2022-08-17T12:44:03.183Z,40.10
2022-08-17T12:49:27.194Z,40.50
2022-08-17T12:54:43.188Z,40.90
2022-08-17T12:59:49.593Z,41.50
2022-08-17T13:04:55.616Z,41.90
2022-08-17T13:10:04.384Z,42.30
2022-08-17T13:16:13.751Z,42.60
2022-08-17T13:21:32.647Z,43.10
2022-08-17T13:26:39.253Z,43.40
2022-08-17T13:31:52.257Z,43.60
2022-08-17T13:42:34.245Z,44.30
2022-08-17T13:48:13.498Z,44.50
2022-08-17T13:54:03.217Z,44.90
2022-08-17T13:59:53.010Z,45.20
2022-08-17T14:05:00.889Z,45.20
2022-08-17T14:10:07.593Z,45.40
2022-08-17T14:15:11.930Z,45.80
2022-08-17T14:20:17.141Z,46.50
2022-08-17T14:25:21.737Z,46.80
2022-08-17T14:30:26.710Z,47.00
2022-08-17T14:35:58.288Z,47.10
2022-08-17T14:41:00.387Z,47.20
2022-08-17T14:46:02.903Z,47.30
2022-08-17T14:51:06.575Z,47.20
2022-08-17T14:56:09.025Z,47.60
2022-08-17T15:01:12.126Z,47.90
2022-08-17T15:06:18.182Z,48.50
2022-08-17T15:11:21.248Z,48.20
2022-08-17T15:16:23.673Z,48.00
2022-08-17T15:21:27.134Z,47.60
2022-08-17T15:26:29.237Z,47.00
2022-08-17T15:31:34.545Z,46.40
2022-08-17T15:36:38.146Z,45.20
2022-08-17T15:41:43.794Z,44.00
2022-08-17T15:46:47.212Z,43.00
2022-08-17T15:51:56.366Z,42.10
2022-08-17T15:56:58.444Z,41.50
2022-08-17T16:03:14.560Z,41.40
2022-08-17T16:07:26.741Z,41.60
2022-08-17T16:12:29.466Z,43.10
2022-08-17T16:17:40.167Z,44.10
2022-08-17T16:22:54.998Z,44.40
2022-08-17T16:27:57.355Z,43.60
2022-08-17T16:33:03.327Z,44.30
2022-08-17T16:38:07.022Z,44.30
2022-08-17T16:43:12.164Z,43.20
2022-08-17T16:48:16.261Z,41.80
2022-08-17T16:53:20.222Z,40.90
2022-08-17T16:58:22.655Z,39.90
2022-08-17T17:03:27.195Z,38.90
2022-08-17T17:08:35.166Z,38.00
2022-08-17T17:13:42.059Z,37.20
2022-08-17T17:18:58.204Z,36.50
2022-08-17T17:24:05.995Z,36.00
2022-08-17T17:29:21.496Z,35.80
2022-08-17T17:34:29.226Z,36.40
2022-08-17T17:39:44.581Z,37.00
2022-08-17T17:44:51.617Z,36.80
2022-08-17T17:49:58.922Z,36.20
2022-08-17T17:55:17.442Z,35.30
2022-08-17T18:00:26.882Z,34.30
2022-08-17T18:05:40.671Z,33.30
2022-08-17T18:10:52.169Z,32.50
2022-08-17T18:15:55.493Z,31.90
2022-08-17T18:21:06.472Z,31.30
2022-08-17T18:26:09.943Z,31.20
2022-08-17T18:31:17.825Z,30.70
2022-08-17T18:36:29.422Z,30.40
2022-08-17T18:41:41.622Z,30.00
2022-08-17T18:46:43.698Z,29.80
2022-08-17T18:51:47.261Z,29.60
2022-08-17T18:56:58.866Z,29.40
2022-08-17T19:02:17.767Z,29.30
2022-08-17T19:07:30.285Z,29.10
2022-08-17T19:12:41.810Z,28.90
2022-08-17T19:17:53.085Z,28.80
2022-08-17T19:23:03.115Z,28.70
2022-08-17T19:28:21.488Z,28.50
2022-08-17T19:33:28.100Z,28.20
2022-08-17T19:38:46.375Z,28.20
2022-08-17T19:44:06.864Z,28.20
2022-08-17T19:49:17.086Z,27.90
2022-08-17T19:54:27.153Z,27.80
2022-08-17T19:59:49.080Z,27.70
2022-08-17T20:04:57.462Z,27.60
2022-08-17T20:10:06.807Z,27.50
2022-08-17T20:15:12.785Z,27.20
2022-08-17T20:20:29.726Z,27.00
2022-08-17T20:25:42.153Z,27.00
2022-08-17T20:30:48.978Z,26.80
2022-08-17T20:36:05.121Z,26.70
2022-08-17T20:41:13.159Z,26.60
2022-08-17T20:46:28.181Z,26.50
2022-08-17T20:51:34.784Z,26.50
2022-08-17T20:56:56.548Z,26.40
2022-08-17T21:02:18.989Z,26.30
2022-08-17T21:07:29.267Z,26.10
2022-08-17T21:12:42.720Z,25.90
2022-08-17T21:17:50.338Z,25.60
2022-08-17T21:23:08.621Z,25.40
2022-08-17T21:28:29.965Z,25.30
2022-08-17T21:33:40.048Z,25.20
2022-08-17T21:38:56.977Z,25.20
2022-08-17T21:44:07.925Z,25.10
2022-08-17T21:49:16.792Z,24.90
2022-08-17T21:54:30.949Z,24.90
2022-08-17T21:59:35.729Z,24.90
2022-08-17T22:04:48.357Z,24.90
2022-08-17T22:09:51.125Z,24.70
2022-08-17T22:15:01.539Z,24.60
2022-08-17T22:20:09.728Z,24.60
2022-08-17T22:25:22.190Z,24.40
2022-08-17T22:30:37.121Z,24.30
2022-08-17T22:35:46.694Z,24.30
2022-08-17T22:40:52.178Z,24.30
2022-08-17T22:45:56.610Z,24.30
2022-08-17T22:51:12.599Z,24.30
2022-08-17T22:56:35.524Z,24.30
2022-08-17T23:01:39.167Z,24.10
2022-08-17T23:06:42.887Z,24.00
2022-08-17T23:11:49.766Z,23.80
2022-08-17T23:16:52.571Z,23.70
2022-08-17T23:21:57.250Z,23.70
2022-08-17T23:26:59.748Z,23.60
2022-08-17T23:32:04.825Z,23.60
2022-08-17T23:37:13.230Z,23.50
2022-08-17T23:42:24.893Z,23.40
2022-08-17T23:47:28.682Z,23.30
2022-08-17T23:52:36.999Z,23.30
2022-08-17T23:57:41.464Z,23.30
